createdAt,value
2023-04-20T00:00:30.910Z,9.50
2023-04-20T00:05:32.423Z,9.49
2023-04-20T00:10:34.201Z,9.44
2023-04-20T00:15:35.760Z,9.38
2023-04-20T00:20:37.423Z,9.30
2023-04-20T00:25:38.757Z,9.24
2023-04-20T00:30:40.100Z,9.11
2023-04-20T00:35:41.470Z,8.98
2023-04-20T00:40:44.170Z,8.87
2023-04-20T00:45:48.890Z,8.81
2023-04-20T00:50:50.989Z,8.70
2023-04-20T00:55:52.787Z,8.54
2023-04-20T01:00:54.217Z,8.50
2023-04-20T01:05:55.693Z,8.45
2023-04-20T01:10:57.714Z,8.38
2023-04-20T01:16:00.470Z,8.28
2023-04-20T01:21:01.917Z,8.23
2023-04-20T01:26:08.129Z,8.16
2023-04-20T01:31:11.272Z,8.06
2023-04-20T01:36:12.976Z,8.11
2023-04-20T01:41:14.430Z,8.19
2023-04-20T01:46:15.844Z,8.27
2023-04-20T01:51:17.200Z,8.21
2023-04-20T01:56:18.552Z,8.19
2023-04-20T02:01:20.125Z,8.23
2023-04-20T02:06:21.754Z,8.31
2023-04-20T02:11:23.125Z,8.33
2023-04-20T02:16:24.705Z,8.45
2023-04-20T02:21:26.177Z,8.49
2023-04-20T02:26:27.537Z,8.51
2023-04-20T02:31:28.982Z,8.51
2023-04-20T02:36:30.821Z,8.52
2023-04-20T02:41:32.576Z,8.54
2023-04-20T02:46:33.984Z,8.59
2023-04-20T02:51:35.489Z,8.58
2023-04-20T02:56:36.974Z,8.61
2023-04-20T03:01:38.411Z,8.62
2023-04-20T03:06:40.474Z,8.65
2023-04-20T03:11:41.879Z,8.69
2023-04-20T03:16:43.540Z,8.79
2023-04-20T03:21:45.548Z,8.69
2023-04-20T03:26:46.859Z,8.60
2023-04-20T03:31:48.318Z,8.49
2023-04-20T03:36:50.096Z,8.43
2023-04-20T03:41:51.468Z,8.32
2023-04-20T03:46:52.818Z,8.25
2023-04-20T03:51:54.133Z,8.11
2023-04-20T03:56:55.454Z,7.99
2023-04-20T04:01:57.064Z,7.93
2023-04-20T04:06:58.558Z,7.82
2023-04-20T04:11:59.892Z,7.82
2023-04-20T04:17:01.366Z,7.72
2023-04-20T04:22:02.700Z,7.68
2023-04-20T04:27:06.036Z,7.66
2023-04-20T04:32:07.972Z,7.57
2023-04-20T04:37:09.314Z,7.67
2023-04-20T04:42:10.830Z,7.70
2023-04-20T04:47:12.169Z,7.63
2023-04-20T04:52:13.570Z,7.65
2023-04-20T04:57:14.958Z,7.73
2023-04-20T05:02:16.779Z,7.74
2023-04-20T05:07:18.423Z,7.75
2023-04-20T05:12:19.818Z,7.78
2023-04-20T05:17:21.360Z,7.68
2023-04-20T05:22:22.771Z,7.77
2023-04-20T05:27:24.186Z,7.81
2023-04-20T05:32:25.554Z,7.93
2023-04-20T05:37:27.416Z,7.90
2023-04-20T05:42:28.797Z,7.92
2023-04-20T05:47:30.410Z,7.98
2023-04-20T05:52:31.785Z,7.99
2023-04-20T05:57:33.153Z,8.11
2023-04-20T06:02:34.612Z,8.17
2023-04-20T06:07:36.599Z,8.21
2023-04-20T06:12:38.101Z,8.29
2023-04-20T06:17:40.680Z,8.42
2023-04-20T06:22:44.459Z,8.38
2023-04-20T06:27:46.529Z,8.53
2023-04-20T06:32:47.982Z,8.57
2023-04-20T06:37:49.685Z,8.82
2023-04-20T06:42:51.025Z,8.89
2023-04-20T06:47:52.412Z,8.99
2023-04-20T06:52:53.872Z,9.00
2023-04-20T06:57:55.211Z,8.89
2023-04-20T07:02:57.030Z,8.83
2023-04-20T07:07:58.423Z,8.84
2023-04-20T07:12:59.817Z,8.89
2023-04-20T07:18:01.182Z,8.80
2023-04-20T07:23:02.664Z,8.70
2023-04-20T07:28:04.028Z,8.81
2023-04-20T07:33:05.705Z,8.94
2023-04-20T07:38:07.135Z,9.02
2023-04-20T07:43:08.503Z,9.10
2023-04-20T07:48:09.898Z,9.33
2023-04-20T07:53:11.243Z,9.33
2023-04-20T07:58:14.289Z,9.59
2023-04-20T08:03:15.810Z,9.84
2023-04-20T08:08:17.856Z,9.98
2023-04-20T08:13:19.208Z,10.18
2023-04-20T08:18:21.545Z,10.47
2023-04-20T08:23:27.689Z,10.84
2023-04-20T08:28:33.318Z,11.03
2023-04-20T08:33:35.988Z,11.24
2023-04-20T08:38:37.419Z,11.61
2023-04-20T08:43:39.461Z,11.76
2023-04-20T08:48:41.863Z,11.76
2023-04-20T08:53:43.316Z,11.89
2023-04-20T08:58:44.672Z,12.33
2023-04-20T09:03:46.176Z,12.48
2023-04-20T09:08:47.576Z,12.71
2023-04-20T09:14:06.818Z,12.92
2023-04-20T09:19:09.388Z,12.99
2023-04-20T09:24:11.282Z,13.03
2023-04-20T09:29:21.564Z,12.90
2023-04-20T09:34:23.807Z,12.98
2023-04-20T09:39:26.699Z,13.15
2023-04-20T09:44:28.165Z,13.32
2023-04-20T09:49:30.115Z,13.55
2023-04-20T09:54:31.679Z,13.64
2023-04-20T09:59:33.389Z,13.62
2023-04-20T10:04:34.942Z,13.67
2023-04-20T10:09:37.707Z,13.81
2023-04-20T10:14:39.130Z,13.88
2023-04-20T10:19:42.381Z,13.97
2023-04-20T10:24:44.070Z,14.10
2023-04-20T10:29:46.018Z,14.01
2023-04-20T10:34:47.435Z,13.93
2023-04-20T10:39:48.835Z,13.93
2023-04-20T10:44:51.240Z,13.81
2023-04-20T10:49:52.990Z,13.74
2023-04-20T10:54:54.361Z,13.86
2023-04-20T10:59:55.836Z,14.14
2023-04-20T11:05:01.017Z,14.26
2023-04-20T11:10:03.960Z,14.13
2023-04-20T11:15:06.247Z,13.67
2023-04-20T11:20:13.199Z,13.61
2023-04-20T11:25:14.606Z,13.77
2023-04-20T11:30:16.020Z,13.78
2023-04-20T11:35:17.493Z,14.11
2023-04-20T11:40:18.863Z,14.27
2023-04-20T11:45:20.213Z,14.56
2023-04-20T11:50:22.701Z,14.81
2023-04-20T11:55:24.038Z,15.21
2023-04-20T12:00:25.816Z,15.69
2023-04-20T12:05:28.176Z,16.01
2023-04-20T12:10:29.601Z,16.03
2023-04-20T12:15:30.985Z,15.80
2023-04-20T12:20:32.489Z,15.97
2023-04-20T12:25:34.269Z,16.38
2023-04-20T12:30:35.689Z,16.74
2023-04-20T12:35:37.246Z,17.21
2023-04-20T12:40:38.728Z,17.76
2023-04-20T12:45:40.076Z,18.11
2023-04-20T12:50:42.186Z,18.80
2023-04-20T12:55:43.593Z,18.69
2023-04-20T13:00:45.122Z,18.56
2023-04-20T13:05:46.743Z,18.09
2023-04-20T13:10:48.265Z,17.68
2023-04-20T13:15:49.714Z,17.27
2023-04-20T13:20:51.124Z,16.79
2023-04-20T13:25:52.577Z,16.56
2023-04-20T13:30:55.369Z,16.15
2023-04-20T13:35:56.753Z,15.77
2023-04-20T13:40:58.087Z,15.66
2023-04-20T13:45:59.477Z,15.66
2023-04-20T13:51:00.887Z,15.58
2023-04-20T13:56:02.359Z,15.44
2023-04-20T14:01:08.605Z,15.39
2023-04-20T14:06:10.353Z,14.75
2023-04-20T14:11:11.742Z,14.37
2023-04-20T14:16:16.721Z,14.40
2023-04-20T14:21:18.181Z,14.52
2023-04-20T14:26:20.486Z,14.62
2023-04-20T14:31:22.867Z,14.86
2023-04-20T14:36:24.368Z,15.02
2023-04-20T14:41:25.762Z,15.07
2023-04-20T14:46:27.210Z,14.95
2023-04-20T14:51:28.637Z,14.81
2023-04-20T14:56:30.048Z,14.57
2023-04-20T15:01:31.441Z,14.40
2023-04-20T15:06:34.553Z,14.27
2023-04-20T15:11:35.957Z,14.21
2023-04-20T15:16:37.313Z,13.99
2023-04-20T15:21:38.674Z,13.83
2023-04-20T15:26:40.156Z,13.79
2023-04-20T15:31:43.314Z,13.75
2023-04-20T15:36:44.839Z,13.64
2023-04-20T15:41:46.282Z,13.45
2023-04-20T15:46:47.662Z,13.38
2023-04-20T15:51:49.240Z,13.34
2023-04-20T15:56:51.049Z,13.32
2023-04-20T16:01:53.262Z,13.24
2023-04-20T16:06:55.046Z,13.12
2023-04-20T16:11:56.436Z,13.01
2023-04-20T16:17:02.320Z,12.94
2023-04-20T16:22:03.719Z,12.84
2023-04-20T16:27:05.394Z,12.76
2023-04-20T16:32:06.892Z,12.47
2023-04-20T16:37:08.279Z,12.38
2023-04-20T16:42:09.836Z,12.38
2023-04-20T16:47:11.360Z,12.35
2023-04-20T16:52:13.254Z,12.14
2023-04-20T16:57:14.951Z,12.07
2023-04-20T17:02:16.456Z,12.00
2023-04-20T17:07:17.972Z,11.91
2023-04-20T17:12:19.360Z,11.87
2023-04-20T17:17:20.713Z,11.73
2023-04-20T17:22:22.309Z,11.66
2023-04-20T17:27:23.667Z,11.48
2023-04-20T17:32:25.162Z,11.35
2023-04-20T17:37:26.916Z,11.33
2023-04-20T17:42:28.256Z,11.34
2023-04-20T17:47:32.460Z,11.24
2023-04-20T17:52:34.010Z,11.19
2023-04-20T17:57:35.583Z,11.19
2023-04-20T18:02:37.805Z,11.11
2023-04-20T18:07:39.193Z,11.11
2023-04-20T18:12:40.535Z,10.99
2023-04-20T18:17:42.440Z,10.90
2023-04-20T18:22:43.809Z,10.92
2023-04-20T18:27:45.768Z,10.85
2023-04-20T18:32:47.124Z,10.83
2023-04-20T18:37:48.610Z,10.70
2023-04-20T18:42:49.947Z,10.62
2023-04-20T18:47:51.362Z,10.57
2023-04-20T18:52:52.708Z,10.47
2023-04-20T18:57:54.051Z,10.37
2023-04-20T19:02:55.593Z,10.16
2023-04-20T19:07:57.086Z,10.03
2023-04-20T19:12:58.421Z,9.82
2023-04-20T19:17:59.933Z,9.72
2023-04-20T19:23:01.322Z,9.60
2023-04-20T19:28:02.824Z,9.50
2023-04-20T19:33:05.068Z,9.42
2023-04-20T19:38:06.571Z,9.45
2023-04-20T19:43:07.881Z,9.19
2023-04-20T19:48:09.352Z,9.27
2023-04-20T19:53:10.774Z,9.10
2023-04-20T19:58:13.299Z,9.05
2023-04-20T20:03:16.095Z,8.96
2023-04-20T20:08:17.582Z,8.93
2023-04-20T20:13:19.043Z,8.82
2023-04-20T20:18:20.671Z,8.82
2023-04-20T20:23:22.010Z,8.81
2023-04-20T20:28:23.370Z,8.92
2023-04-20T20:33:24.751Z,8.89
2023-04-20T20:38:26.077Z,8.84
2023-04-20T20:43:28.436Z,8.89
2023-04-20T20:48:29.836Z,8.97
2023-04-20T20:53:31.388Z,8.96
2023-04-20T20:58:32.734Z,9.04
2023-04-20T21:03:34.275Z,9.07
2023-04-20T21:08:36.464Z,9.17
2023-04-20T21:13:37.806Z,9.24
2023-04-20T21:18:39.198Z,9.32
2023-04-20T21:23:40.544Z,9.21
2023-04-20T21:28:42.200Z,9.25
2023-04-20T21:33:43.939Z,9.22
2023-04-20T21:38:45.433Z,9.35
2023-04-20T21:43:47.057Z,9.36
2023-04-20T21:48:48.378Z,9.16
2023-04-20T21:53:49.702Z,9.26
2023-04-20T21:58:51.025Z,9.35
2023-04-20T22:03:52.490Z,9.42
2023-04-20T22:08:54.073Z,9.37
2023-04-20T22:13:57.170Z,9.33
2023-04-20T22:18:58.512Z,9.23
2023-04-20T22:23:59.898Z,9.33
2023-04-20T22:29:01.428Z,9.42
2023-04-20T22:34:02.779Z,9.50
2023-04-20T22:39:04.471Z,9.59
2023-04-20T22:44:06.145Z,9.62
2023-04-20T22:49:08.688Z,9.68
2023-04-20T22:54:10.113Z,9.61
2023-04-20T22:59:11.440Z,9.58
2023-04-20T23:04:12.940Z,9.66
2023-04-20T23:09:20.297Z,9.75
2023-04-20T23:14:22.453Z,9.79
2023-04-20T23:19:25.620Z,9.70
2023-04-20T23:24:26.953Z,9.62
2023-04-20T23:29:28.292Z,9.64
2023-04-20T23:34:30.137Z,9.63
2023-04-20T23:39:36.228Z,9.78
2023-04-20T23:44:37.546Z,9.81
2023-04-20T23:49:38.910Z,9.79
2023-04-20T23:54:40.338Z,9.82
2023-04-20T23:59:41.852Z,9.85
